createdAt,value
2023-05-22T00:02:18.975Z,7.40
2023-05-22T00:04:47.796Z,7.10
2023-05-22T00:07:16.528Z,7.50
2023-05-22T00:09:44.887Z,7.60
2023-05-22T00:12:13.194Z,7.63
2023-05-22T00:14:42.890Z,7.50
2023-05-22T00:17:15.176Z,7.80
2023-05-22T00:19:43.862Z,7.13
2023-05-22T00:22:12.238Z,6.87
2023-05-22T00:24:40.582Z,6.30
2023-05-22T00:27:08.899Z,7.63
2023-05-22T00:29:37.263Z,7.57
2023-05-22T00:32:08.361Z,7.83
2023-05-22T00:34:36.743Z,7.40
2023-05-22T00:37:05.272Z,6.97
2023-05-22T00:39:33.624Z,7.37
2023-05-22T00:42:01.913Z,7.37
2023-05-22T00:44:30.955Z,7.10
2023-05-22T00:46:59.588Z,7.03
2023-05-22T00:49:29.826Z,7.53
2023-05-22T00:51:58.126Z,7.40
2023-05-22T00:54:26.441Z,6.70
2023-05-22T00:56:54.780Z,7.73
2023-05-22T00:59:23.116Z,8.00
2023-05-22T01:01:51.854Z,7.67
2023-05-22T01:04:20.293Z,7.17
2023-05-22T01:06:51.490Z,8.30
2023-05-22T01:09:19.900Z,7.70
2023-05-22T01:11:52.673Z,7.93
2023-05-22T01:14:25.712Z,7.53
2023-05-22T01:16:59.821Z,7.43
2023-05-22T01:19:50.675Z,7.23
2023-05-22T01:22:26.115Z,8.50
2023-05-22T01:25:00.812Z,7.57
2023-05-22T01:27:44.702Z,7.60
2023-05-22T01:30:21.208Z,8.00
2023-05-22T01:32:51.075Z,7.67
2023-05-22T01:35:20.637Z,8.10
2023-05-22T01:37:50.246Z,7.80
2023-05-22T01:40:18.779Z,7.77
2023-05-22T01:42:47.345Z,8.40
2023-05-22T01:45:15.979Z,8.57
2023-05-22T01:47:46.510Z,8.03
2023-05-22T01:50:17.459Z,7.60
2023-05-22T01:53:02.775Z,7.77
2023-05-22T01:55:36.053Z,8.43
2023-05-22T01:58:12.320Z,8.10
2023-05-22T02:00:41.607Z,8.07
2023-05-22T02:03:12.742Z,8.53
2023-05-22T02:05:42.600Z,7.80
2023-05-22T02:08:11.014Z,8.53
2023-05-22T02:10:43.309Z,8.40
2023-05-22T02:13:12.033Z,8.10
2023-05-22T02:15:40.492Z,8.27
2023-05-22T02:18:13.059Z,8.73
2023-05-22T02:20:44.233Z,8.17
2023-05-22T02:23:12.827Z,7.90
2023-05-22T02:25:41.516Z,8.30
2023-05-22T02:28:09.802Z,8.23
2023-05-22T02:30:38.337Z,7.97
2023-05-22T02:33:06.919Z,8.03
2023-05-22T02:35:35.849Z,7.60
2023-05-22T02:38:06.678Z,8.10
2023-05-22T02:40:35.390Z,8.70
2023-05-22T02:43:03.896Z,8.30
2023-05-22T02:45:32.621Z,8.57
2023-05-22T02:48:02.193Z,8.60
2023-05-22T02:50:31.167Z,8.63
2023-05-22T02:52:59.767Z,8.90
2023-05-22T02:55:29.679Z,8.63
2023-05-22T02:57:58.058Z,8.90
2023-05-22T03:00:26.752Z,8.10
2023-05-22T03:02:56.691Z,8.27
2023-05-22T03:05:25.093Z,8.03
2023-05-22T03:07:53.493Z,8.53
2023-05-22T03:10:21.887Z,8.80
2023-05-22T03:12:51.990Z,8.87
2023-05-22T03:15:20.581Z,8.70
2023-05-22T03:17:50.350Z,8.90
2023-05-22T03:20:18.946Z,9.30
2023-05-22T03:22:47.312Z,8.13
2023-05-22T03:25:16.554Z,8.03
2023-05-22T03:27:45.101Z,8.60
2023-05-22T03:30:16.752Z,8.80
2023-05-22T03:32:55.037Z,7.90
2023-05-22T03:35:25.334Z,8.13
2023-05-22T03:37:53.830Z,8.47
2023-05-22T03:40:22.278Z,8.50
2023-05-22T03:42:50.883Z,8.70
2023-05-22T03:45:21.361Z,8.30
2023-05-22T03:47:50.159Z,9.10
2023-05-22T03:50:18.509Z,8.57
2023-05-22T03:52:47.176Z,8.83
2023-05-22T03:55:16.379Z,9.67
2023-05-22T03:57:45.174Z,9.20
2023-05-22T04:00:17.105Z,9.17
2023-05-22T04:02:48.088Z,8.87
2023-05-22T04:05:16.656Z,9.13
2023-05-22T04:07:45.238Z,8.93
2023-05-22T04:10:13.801Z,8.97
2023-05-22T04:12:42.583Z,9.20
2023-05-22T04:15:11.289Z,8.90
2023-05-22T04:17:40.547Z,9.30
2023-05-22T04:20:11.332Z,9.53
2023-05-22T04:22:41.358Z,8.70
2023-05-22T04:25:11.314Z,9.23
2023-05-22T04:27:40.256Z,9.00
2023-05-22T04:30:10.612Z,9.63
2023-05-22T04:32:41.010Z,10.00
2023-05-22T04:35:12.374Z,8.90
2023-05-22T04:37:42.391Z,9.83
2023-05-22T04:40:11.550Z,9.30
2023-05-22T04:42:40.596Z,9.53
2023-05-22T04:45:10.021Z,9.13
2023-05-22T04:47:41.749Z,9.40
2023-05-22T04:50:14.405Z,9.37
2023-05-22T04:52:43.470Z,10.23
2023-05-22T04:55:13.041Z,9.77
2023-05-22T04:57:41.353Z,9.80
2023-05-22T05:00:10.950Z,10.33
2023-05-22T05:02:40.303Z,9.10
2023-05-22T05:05:09.601Z,10.83
2023-05-22T05:07:43.932Z,10.60
2023-05-22T05:10:12.450Z,9.50
2023-05-22T05:12:40.749Z,11.33
2023-05-22T05:15:10.008Z,11.43
2023-05-22T05:17:38.485Z,9.60
2023-05-22T05:20:08.734Z,9.67
2023-05-22T05:22:37.529Z,8.83
2023-05-22T05:25:10.935Z,9.70
2023-05-22T05:27:40.727Z,9.57
2023-05-22T05:30:10.923Z,8.80
2023-05-22T05:32:59.516Z,8.27
2023-05-22T05:35:36.489Z,9.40
2023-05-22T05:38:09.921Z,9.10
2023-05-22T05:40:42.270Z,9.97
2023-05-22T05:43:14.124Z,8.40
2023-05-22T05:45:43.785Z,8.27
2023-05-22T05:48:13.059Z,7.67
2023-05-22T05:50:44.992Z,7.80
2023-05-22T05:53:13.283Z,7.57
2023-05-22T05:55:47.621Z,8.17
2023-05-22T05:58:16.274Z,8.10
2023-05-22T06:00:56.432Z,8.07
2023-05-22T06:03:26.280Z,7.27
2023-05-22T06:06:03.707Z,7.73
2023-05-22T06:08:58.374Z,7.50
2023-05-22T06:11:33.845Z,7.50
2023-05-22T06:14:04.134Z,7.87
2023-05-22T06:16:33.141Z,7.50
2023-05-22T06:19:01.751Z,6.73
2023-05-22T06:21:30.078Z,6.40
2023-05-22T06:23:58.936Z,6.47
2023-05-22T06:26:27.811Z,6.50
2023-05-22T06:28:57.629Z,6.00
2023-05-22T06:31:26.592Z,5.73
2023-05-22T06:33:57.900Z,6.03
2023-05-22T06:36:27.145Z,6.03
2023-05-22T06:38:56.533Z,6.10
2023-05-22T06:41:45.172Z,6.17
2023-05-22T06:44:17.211Z,5.63
2023-05-22T06:46:45.511Z,5.53
2023-05-22T06:49:20.937Z,5.77
2023-05-22T06:51:53.182Z,6.30
2023-05-22T06:54:22.690Z,5.63
2023-05-22T06:56:57.048Z,5.73
2023-05-22T06:59:29.710Z,6.07
2023-05-22T07:02:07.224Z,6.20
2023-05-22T07:05:00.230Z,6.20
2023-05-22T07:07:45.134Z,6.40
2023-05-22T07:10:13.806Z,6.40
2023-05-22T07:12:42.249Z,6.73
2023-05-22T07:15:14.735Z,6.13
2023-05-22T07:17:49.492Z,6.13
2023-05-22T07:20:19.600Z,6.47
2023-05-22T07:23:06.709Z,5.83
2023-05-22T07:25:37.653Z,6.13
2023-05-22T07:28:09.095Z,5.97
2023-05-22T07:30:46.095Z,6.10
2023-05-22T07:33:14.615Z,5.97
2023-05-22T07:35:45.704Z,5.60
2023-05-22T07:38:14.430Z,5.10
2023-05-22T07:40:50.598Z,5.23
2023-05-22T07:43:19.477Z,6.00
2023-05-22T07:45:49.747Z,5.70
2023-05-22T07:48:21.480Z,5.50
2023-05-22T07:50:50.108Z,5.73
2023-05-22T07:53:18.416Z,5.53
2023-05-22T07:55:50.956Z,4.87
2023-05-22T07:58:20.130Z,5.17
2023-05-22T08:00:52.483Z,5.17
2023-05-22T08:03:23.836Z,5.43
2023-05-22T08:05:52.788Z,5.30
2023-05-22T08:08:21.167Z,5.33
2023-05-22T08:11:03.054Z,5.27
2023-05-22T08:13:32.454Z,4.80
2023-05-22T08:16:02.521Z,4.90
2023-05-22T08:18:30.859Z,5.13
2023-05-22T08:21:00.318Z,4.80
2023-05-22T08:23:28.713Z,4.80
2023-05-22T08:25:57.198Z,4.43
2023-05-22T08:28:25.512Z,4.50
2023-05-22T08:30:54.508Z,4.50
2023-05-22T08:33:24.463Z,4.40
2023-05-22T08:35:52.803Z,4.63
2023-05-22T08:38:21.084Z,4.40
2023-05-22T08:40:49.931Z,5.30
2023-05-22T08:43:21.630Z,5.93
2023-05-22T08:45:50.680Z,5.63
2023-05-22T08:48:19.004Z,5.70
2023-05-22T08:50:48.885Z,5.43
2023-05-22T08:53:18.029Z,5.77
2023-05-22T08:55:46.696Z,5.80
2023-05-22T08:58:16.072Z,5.17
2023-05-22T09:00:44.508Z,5.43
2023-05-22T09:03:15.316Z,5.40
2023-05-22T09:05:45.430Z,5.47
2023-05-22T09:08:20.485Z,5.07
2023-05-22T09:10:49.906Z,5.40
2023-05-22T09:13:28.132Z,5.73
2023-05-22T09:15:59.771Z,5.73
2023-05-22T09:18:30.882Z,4.70
2023-05-22T09:21:00.079Z,5.40
2023-05-22T09:23:30.718Z,5.93
2023-05-22T09:25:59.678Z,5.70
2023-05-22T09:28:29.039Z,5.60
2023-05-22T09:30:57.407Z,5.07
2023-05-22T09:33:25.973Z,5.20
2023-05-22T09:35:54.543Z,5.43
2023-05-22T09:38:23.510Z,5.07
2023-05-22T09:40:55.839Z,5.23
2023-05-22T09:43:25.422Z,5.53
2023-05-22T09:45:58.099Z,4.93
2023-05-22T09:48:26.836Z,4.80
2023-05-22T09:50:56.083Z,5.37
2023-05-22T09:53:27.441Z,5.23
2023-05-22T09:55:58.100Z,5.23
2023-05-22T09:58:28.266Z,5.57
2023-05-22T10:00:57.741Z,4.73
2023-05-22T10:03:27.182Z,4.87
2023-05-22T10:05:56.337Z,4.97
2023-05-22T10:08:26.999Z,5.00
2023-05-22T10:10:55.318Z,5.23
2023-05-22T10:13:25.178Z,5.30
2023-05-22T10:15:53.486Z,5.87
2023-05-22T10:18:22.187Z,5.60
2023-05-22T10:20:50.476Z,4.90
2023-05-22T10:23:19.335Z,4.97
2023-05-22T10:25:47.741Z,5.10
2023-05-22T10:28:18.147Z,5.20
2023-05-22T10:30:51.302Z,4.70
2023-05-22T10:33:26.423Z,4.87
2023-05-22T10:35:56.652Z,4.40
2023-05-22T10:38:47.150Z,4.47
2023-05-22T10:41:15.437Z,4.30
2023-05-22T10:43:43.986Z,4.40
2023-05-22T10:46:14.666Z,4.43
2023-05-22T10:48:45.559Z,4.80
2023-05-22T10:51:14.028Z,4.23
2023-05-22T10:53:45.392Z,4.57
2023-05-22T10:56:14.465Z,4.33
2023-05-22T10:58:45.702Z,4.03
2023-05-22T11:01:16.642Z,4.03
2023-05-22T11:03:58.362Z,4.13
2023-05-22T11:06:39.366Z,4.03
2023-05-22T11:09:21.871Z,4.80
2023-05-22T11:11:50.576Z,4.10
2023-05-22T11:14:21.308Z,4.13
2023-05-22T11:16:51.087Z,4.10
2023-05-22T11:19:23.891Z,4.07
2023-05-22T11:21:52.526Z,4.20
2023-05-22T11:24:20.876Z,4.30
2023-05-22T11:27:02.359Z,4.07
2023-05-22T11:29:30.808Z,4.23
2023-05-22T11:32:00.826Z,4.07
2023-05-22T11:34:29.222Z,4.20
2023-05-22T11:37:00.831Z,4.53
2023-05-22T11:39:29.422Z,4.33
2023-05-22T11:41:57.955Z,3.93
2023-05-22T11:44:28.542Z,3.83
2023-05-22T11:46:56.910Z,4.10
2023-05-22T11:49:26.729Z,3.77
2023-05-22T11:51:55.062Z,4.30
2023-05-22T11:54:24.396Z,4.47
2023-05-22T11:56:52.689Z,4.20
2023-05-22T11:59:22.697Z,4.13
2023-05-22T12:01:51.028Z,4.10
2023-05-22T12:04:19.429Z,4.20
2023-05-22T12:06:49.907Z,4.20
2023-05-22T12:09:18.348Z,4.23
2023-05-22T12:11:47.648Z,4.27
2023-05-22T12:14:16.006Z,4.10
2023-05-22T12:16:44.737Z,4.70
2023-05-22T12:19:13.522Z,4.57
2023-05-22T12:21:42.370Z,4.07
2023-05-22T12:24:12.170Z,4.33
2023-05-22T12:26:40.562Z,4.23
2023-05-22T12:29:08.874Z,4.13
2023-05-22T12:31:38.580Z,4.07
2023-05-22T12:34:08.624Z,4.60
2023-05-22T12:36:37.176Z,4.20
2023-05-22T12:39:09.288Z,3.63
2023-05-22T12:41:39.037Z,4.10
2023-05-22T12:44:07.430Z,3.87
2023-05-22T12:46:35.929Z,4.10
2023-05-22T12:49:04.524Z,3.77
2023-05-22T12:51:33.535Z,4.27
2023-05-22T12:54:02.135Z,4.50
2023-05-22T12:56:30.471Z,4.13
2023-05-22T12:59:00.184Z,4.23
2023-05-22T13:01:28.541Z,3.93
2023-05-22T13:03:56.866Z,3.83
2023-05-22T13:06:25.241Z,4.10
2023-05-22T13:08:53.739Z,4.33
2023-05-22T13:11:23.529Z,4.30
2023-05-22T13:13:51.913Z,4.23
2023-05-22T13:16:22.822Z,4.30
2023-05-22T13:18:51.390Z,4.50
2023-05-22T13:21:19.780Z,4.23
2023-05-22T13:23:48.073Z,4.30
2023-05-22T13:26:16.402Z,4.53
2023-05-22T13:28:45.146Z,4.27
2023-05-22T13:31:13.540Z,4.47
2023-05-22T13:33:43.340Z,4.10
2023-05-22T13:36:11.724Z,3.90
2023-05-22T13:38:40.007Z,4.00
2023-05-22T13:41:08.585Z,4.50
2023-05-22T13:43:36.970Z,8.03
2023-05-22T13:46:05.341Z,4.87
2023-05-22T13:48:33.666Z,3.73
2023-05-22T13:51:03.549Z,3.87
2023-05-22T13:53:31.958Z,5.60
2023-05-22T13:56:02.128Z,4.83
2023-05-22T13:58:30.508Z,4.30
2023-05-22T14:00:59.194Z,4.83
2023-05-22T14:03:27.614Z,4.53
2023-05-22T14:05:56.031Z,4.23
2023-05-22T14:08:26.391Z,4.00
2023-05-22T14:10:54.727Z,3.70
2023-05-22T14:13:23.077Z,4.20
2023-05-22T14:15:51.442Z,4.23
2023-05-22T14:18:19.912Z,4.50
2023-05-22T14:20:48.265Z,4.87
2023-05-22T14:23:17.167Z,4.33
2023-05-22T14:25:46.878Z,4.33
2023-05-22T14:28:15.215Z,5.10
2023-05-22T14:30:44.102Z,4.63
2023-05-22T14:33:12.595Z,5.50
2023-05-22T14:35:41.509Z,4.37
2023-05-22T14:38:10.083Z,4.43
2023-05-22T14:40:38.500Z,4.20
2023-05-22T14:43:08.255Z,4.07
2023-05-22T14:45:36.558Z,4.80
2023-05-22T14:48:05.465Z,4.70
2023-05-22T14:50:33.862Z,5.20
2023-05-22T14:53:02.198Z,4.57
2023-05-22T14:55:31.601Z,4.60
2023-05-22T14:57:59.916Z,4.73
2023-05-22T15:00:29.781Z,4.30
2023-05-22T15:02:58.188Z,4.50
2023-05-22T15:05:26.995Z,4.70
2023-05-22T15:07:58.468Z,4.10
2023-05-22T15:10:26.841Z,5.03
2023-05-22T15:12:55.544Z,4.40
2023-05-22T15:15:23.974Z,4.20
2023-05-22T15:17:53.764Z,4.40
2023-05-22T15:20:22.108Z,4.10
2023-05-22T15:22:50.383Z,4.20
2023-05-22T15:25:18.710Z,4.37
2023-05-22T15:27:46.992Z,4.27
2023-05-22T15:30:17.134Z,3.87
2023-05-22T15:32:45.700Z,4.27
2023-05-22T15:35:15.487Z,4.30
2023-05-22T15:37:43.805Z,4.17
2023-05-22T15:40:16.463Z,3.63
2023-05-22T15:42:44.889Z,3.83
2023-05-22T15:45:13.818Z,3.67
2023-05-22T15:47:42.620Z,3.93
2023-05-22T15:50:11.555Z,3.80
2023-05-22T15:52:41.255Z,4.13
2023-05-22T15:55:09.978Z,3.60
2023-05-22T15:57:38.790Z,3.90
2023-05-22T16:00:08.668Z,3.73
2023-05-22T16:02:37.048Z,3.97
2023-05-22T16:05:05.870Z,3.90
2023-05-22T16:07:34.508Z,3.77
2023-05-22T16:10:04.646Z,4.03
2023-05-22T16:12:33.243Z,3.80
2023-05-22T16:15:02.800Z,4.00
2023-05-22T16:17:32.301Z,3.97
2023-05-22T16:20:00.632Z,3.70
2023-05-22T16:22:40.046Z,4.00
2023-05-22T16:25:17.875Z,4.00
2023-05-22T16:27:46.257Z,3.83
2023-05-22T16:30:16.965Z,3.70
2023-05-22T16:32:46.180Z,3.83
2023-05-22T16:35:14.594Z,3.77
2023-05-22T16:37:42.914Z,3.60
2023-05-22T16:40:11.985Z,4.00
2023-05-22T16:42:41.738Z,4.33
2023-05-22T16:45:10.594Z,4.10
2023-05-22T16:47:38.934Z,4.60
2023-05-22T16:50:09.038Z,4.27
2023-05-22T16:52:38.468Z,4.00
2023-05-22T16:55:07.711Z,4.13
2023-05-22T16:57:36.029Z,4.03
2023-05-22T17:00:07.321Z,4.17
2023-05-22T17:02:35.965Z,4.20
2023-05-22T17:05:04.593Z,4.27
2023-05-22T17:07:33.597Z,4.30
2023-05-22T17:10:02.401Z,4.43
2023-05-22T17:12:30.936Z,4.20
2023-05-22T17:14:59.350Z,5.30
2023-05-22T17:17:29.064Z,5.87
2023-05-22T17:19:58.638Z,6.40
2023-05-22T17:22:26.982Z,6.30
2023-05-22T17:24:55.490Z,6.47
2023-05-22T17:27:34.860Z,6.97
2023-05-22T17:30:04.739Z,7.13
2023-05-22T17:32:34.638Z,7.07
2023-05-22T17:35:05.000Z,7.07
2023-05-22T17:37:33.383Z,7.63
2023-05-22T17:40:01.661Z,7.17
2023-05-22T17:42:30.052Z,7.33
2023-05-22T17:44:58.449Z,7.33
2023-05-22T17:47:27.199Z,7.73
2023-05-22T17:49:56.980Z,7.10
2023-05-22T17:52:25.284Z,7.20
2023-05-22T17:54:55.936Z,6.73
2023-05-22T17:57:24.326Z,6.83
2023-05-22T17:59:52.609Z,7.23
2023-05-22T18:02:20.988Z,6.57
2023-05-22T18:04:49.682Z,6.63
2023-05-22T18:07:20.037Z,6.93
2023-05-22T18:09:48.413Z,6.70
2023-05-22T18:12:31.203Z,7.17
2023-05-22T18:15:00.312Z,6.70
2023-05-22T18:17:29.183Z,7.47
2023-05-22T18:19:57.552Z,7.13
2023-05-22T18:22:27.310Z,7.43
2023-05-22T18:24:55.589Z,7.10
2023-05-22T18:27:23.897Z,7.17
2023-05-22T18:29:52.525Z,6.43
2023-05-22T18:32:20.824Z,7.57
2023-05-22T18:34:49.747Z,7.60
2023-05-22T18:37:19.032Z,7.17
2023-05-22T18:39:48.762Z,6.97
2023-05-22T18:42:17.624Z,7.50
2023-05-22T18:44:48.726Z,6.97
2023-05-22T18:47:17.536Z,6.87
2023-05-22T18:49:45.965Z,7.03
2023-05-22T18:52:14.376Z,7.43
2023-05-22T18:54:42.714Z,7.80
2023-05-22T18:57:13.911Z,8.03
2023-05-22T18:59:43.672Z,7.00
2023-05-22T19:02:12.011Z,6.57
2023-05-22T19:04:40.342Z,8.10
2023-05-22T19:07:09.437Z,7.60
2023-05-22T19:09:38.275Z,7.67
2023-05-22T19:12:07.522Z,7.50
2023-05-22T19:14:37.246Z,8.63
2023-05-22T19:17:05.936Z,8.40
2023-05-22T19:19:35.771Z,7.87
2023-05-22T19:22:04.277Z,7.90
2023-05-22T19:24:33.072Z,7.93
2023-05-22T19:27:01.484Z,7.77
2023-05-22T19:29:29.846Z,8.03
2023-05-22T19:31:59.614Z,7.60
2023-05-22T19:34:28.429Z,7.93
2023-05-22T19:36:57.988Z,7.90
2023-05-22T19:39:27.384Z,8.10
2023-05-22T19:41:55.753Z,8.03
2023-05-22T19:44:24.115Z,7.37
2023-05-22T19:46:52.766Z,7.53
2023-05-22T19:49:22.474Z,8.13
2023-05-22T19:51:52.542Z,8.33
2023-05-22T19:54:22.524Z,8.67
2023-05-22T19:56:51.161Z,7.90
2023-05-22T19:59:20.001Z,9.13
2023-05-22T20:01:49.964Z,8.30
2023-05-22T20:04:19.425Z,8.47
2023-05-22T20:06:49.249Z,8.60
2023-05-22T20:09:17.618Z,8.30
2023-05-22T20:11:46.461Z,7.77
2023-05-22T20:14:15.221Z,7.87
2023-05-22T20:16:44.127Z,7.43
2023-05-22T20:19:14.329Z,8.43
2023-05-22T20:21:43.543Z,8.10
2023-05-22T20:24:19.217Z,8.17
2023-05-22T20:26:47.518Z,7.97
2023-05-22T20:29:15.818Z,7.73
2023-05-22T20:31:44.197Z,7.77
2023-05-22T20:34:12.723Z,7.43
2023-05-22T20:36:42.628Z,7.60
2023-05-22T20:39:12.011Z,7.07
2023-05-22T20:41:41.674Z,7.43
2023-05-22T20:44:10.461Z,7.20
2023-05-22T20:46:39.044Z,7.70
2023-05-22T20:49:07.327Z,7.33
2023-05-22T20:51:35.617Z,6.97
2023-05-22T20:54:03.943Z,6.80
2023-05-22T20:56:32.435Z,7.17
2023-05-22T20:59:02.409Z,7.00
2023-05-22T21:01:31.202Z,7.67
2023-05-22T21:03:59.567Z,7.10
2023-05-22T21:06:27.838Z,6.80
2023-05-22T21:08:59.815Z,7.30
2023-05-22T21:11:28.062Z,6.80
2023-05-22T21:13:56.586Z,7.00
2023-05-22T21:16:26.462Z,7.00
2023-05-22T21:18:54.833Z,7.47
2023-05-22T21:21:23.119Z,6.73
2023-05-22T21:23:52.543Z,7.10
2023-05-22T21:26:23.087Z,7.60
2023-05-22T21:28:51.756Z,7.33
2023-05-22T21:31:20.113Z,7.13
2023-05-22T21:33:49.842Z,7.57
2023-05-22T21:36:18.113Z,8.90
2023-05-22T21:38:46.464Z,8.33
2023-05-22T21:41:16.158Z,8.37
2023-05-22T21:43:45.523Z,8.30
2023-05-22T21:46:13.861Z,7.93
2023-05-22T21:48:42.239Z,8.37
2023-05-22T21:51:12.017Z,8.27
2023-05-22T21:53:40.387Z,7.77
2023-05-22T21:56:09.585Z,7.23
2023-05-22T21:58:37.820Z,6.63
2023-05-22T22:01:06.576Z,6.93
2023-05-22T22:03:35.250Z,7.90
2023-05-22T22:06:03.589Z,6.70
2023-05-22T22:08:33.801Z,7.70
2023-05-22T22:11:02.049Z,7.40
2023-05-22T22:13:30.356Z,7.13
2023-05-22T22:15:59.526Z,7.00
2023-05-22T22:18:27.906Z,7.00
2023-05-22T22:20:56.254Z,7.40
2023-05-22T22:23:24.891Z,6.83
2023-05-22T22:25:54.939Z,7.00
2023-05-22T22:28:23.331Z,7.93
2023-05-22T22:30:55.026Z,9.30
2023-05-22T22:33:23.716Z,8.37
2023-05-22T22:35:52.553Z,8.60
2023-05-22T22:38:21.190Z,8.27
2023-05-22T22:40:49.497Z,8.00
2023-05-22T22:43:19.971Z,6.97
2023-05-22T22:45:48.408Z,5.30
2023-05-22T22:48:17.015Z,5.30
2023-05-22T22:50:46.899Z,5.27
2023-05-22T22:53:15.218Z,5.17
2023-05-22T22:55:44.128Z,5.17
2023-05-22T22:58:12.577Z,5.70
2023-05-22T23:00:42.571Z,6.20
2023-05-22T23:03:11.461Z,6.40
2023-05-22T23:05:40.144Z,6.47
2023-05-22T23:08:08.825Z,6.53
2023-05-22T23:10:37.192Z,7.20
2023-05-22T23:13:05.511Z,7.83
2023-05-22T23:15:34.923Z,7.80
2023-05-22T23:18:05.461Z,7.27
2023-05-22T23:20:33.810Z,7.13
2023-05-22T23:23:02.118Z,7.03
2023-05-22T23:25:30.476Z,6.60
2023-05-22T23:27:58.850Z,6.37
2023-05-22T23:30:27.406Z,6.13
2023-05-22T23:32:55.822Z,6.27
2023-05-22T23:35:25.619Z,6.77
2023-05-22T23:37:53.922Z,6.53
2023-05-22T23:40:22.233Z,6.63
2023-05-22T23:42:50.994Z,6.47
2023-05-22T23:45:19.310Z,5.97
2023-05-22T23:47:47.661Z,5.60
2023-05-22T23:50:16.125Z,6.07
2023-05-22T23:52:47.364Z,5.60
2023-05-22T23:55:15.727Z,5.90
2023-05-22T23:57:44.308Z,6.27
